createdAt,value
2024-05-09T00:00:39.880Z,11.24
2024-05-09T00:03:25.939Z,11.24
2024-05-09T00:08:52.702Z,11.20
2024-05-09T00:11:38.146Z,11.24
2024-05-09T00:14:23.920Z,11.26
2024-05-09T00:17:08.844Z,11.24
2024-05-09T00:19:53.975Z,11.18
2024-05-09T00:22:38.837Z,11.14
2024-05-09T00:25:24.067Z,11.09
2024-05-09T00:28:09.166Z,11.00
2024-05-09T00:30:54.232Z,10.95
2024-05-09T00:33:39.537Z,10.81
2024-05-09T00:36:24.859Z,10.71
2024-05-09T00:39:10.071Z,10.70
2024-05-09T00:41:54.985Z,10.67
2024-05-09T00:47:28.878Z,10.59
2024-05-09T00:50:19.329Z,10.55
2024-05-09T00:53:08.171Z,10.57
2024-05-09T00:55:53.103Z,10.59
2024-05-09T00:58:38.086Z,10.63
2024-05-09T01:01:23.304Z,10.61
2024-05-09T01:06:56.774Z,10.54
2024-05-09T01:09:41.987Z,10.49
2024-05-09T01:12:27.126Z,10.44
2024-05-09T01:15:12.002Z,10.38
2024-05-09T01:17:57.554Z,10.42
2024-05-09T01:20:44.745Z,10.43
2024-05-09T01:23:31.029Z,10.39
2024-05-09T01:26:16.174Z,10.38
2024-05-09T01:29:01.180Z,10.43
2024-05-09T01:31:46.372Z,10.43
2024-05-09T01:34:31.280Z,10.50
2024-05-09T01:37:16.441Z,10.50
2024-05-09T01:40:01.354Z,10.43
2024-05-09T01:42:46.437Z,10.32
2024-05-09T01:45:31.641Z,10.19
2024-05-09T01:48:16.886Z,10.10
2024-05-09T01:51:02.545Z,10.07
2024-05-09T01:53:47.499Z,10.09
2024-05-09T01:56:32.848Z,10.10
2024-05-09T02:02:04.720Z,10.12
2024-05-09T02:04:50.393Z,10.03
2024-05-09T02:07:35.591Z,9.85
2024-05-09T02:13:09.167Z,9.93
2024-05-09T02:15:54.186Z,9.90
2024-05-09T02:18:39.526Z,9.91
2024-05-09T02:21:24.542Z,9.98
2024-05-09T02:24:09.598Z,9.93
2024-05-09T02:26:54.556Z,9.88
2024-05-09T02:29:39.705Z,9.81
2024-05-09T02:32:24.897Z,9.77
2024-05-09T02:35:09.840Z,9.78
2024-05-09T02:37:55.159Z,9.70
2024-05-09T02:40:40.785Z,9.63
2024-05-09T02:43:26.198Z,9.64
2024-05-09T02:46:11.155Z,9.62
2024-05-09T02:48:56.348Z,9.56
2024-05-09T02:51:41.433Z,9.48
2024-05-09T02:54:26.469Z,9.41
2024-05-09T02:57:11.642Z,9.41
2024-05-09T02:59:56.569Z,9.39
2024-05-09T03:02:41.787Z,9.36
2024-05-09T03:05:27.095Z,9.34
2024-05-09T03:11:00.387Z,9.28
2024-05-09T03:13:45.364Z,9.25
2024-05-09T03:22:08.460Z,9.17
2024-05-09T03:24:53.573Z,9.16
2024-05-09T03:27:38.983Z,9.13
2024-05-09T03:30:31.150Z,9.07
2024-05-09T03:33:24.940Z,9.04
2024-05-09T03:36:11.406Z,9.04
2024-05-09T03:38:56.378Z,9.04
2024-05-09T03:41:41.557Z,9.05
2024-05-09T03:44:26.603Z,9.02
2024-05-09T03:47:12.240Z,9.03
2024-05-09T03:49:57.217Z,9.00
2024-05-09T03:52:42.175Z,8.94
2024-05-09T03:58:08.724Z,8.89
2024-05-09T04:00:53.618Z,8.87
2024-05-09T04:03:38.903Z,8.80
2024-05-09T04:06:23.876Z,8.77
2024-05-09T04:09:09.176Z,8.78
2024-05-09T04:11:54.616Z,8.77
2024-05-09T04:14:40.021Z,8.74
2024-05-09T04:17:25.320Z,8.73
2024-05-09T04:20:18.379Z,8.78
2024-05-09T04:23:09.739Z,8.79
2024-05-09T04:25:55.139Z,8.82
2024-05-09T04:28:40.470Z,8.81
2024-05-09T04:31:25.505Z,8.86
2024-05-09T04:34:10.893Z,8.88
2024-05-09T04:36:56.373Z,8.87
2024-05-09T04:39:41.431Z,8.87
2024-05-09T04:42:26.540Z,8.90
2024-05-09T04:45:11.371Z,8.84
2024-05-09T04:47:56.765Z,8.80
2024-05-09T04:53:22.407Z,8.89
2024-05-09T04:56:07.600Z,8.93
2024-05-09T04:58:52.802Z,8.99
2024-05-09T05:01:38.033Z,9.07
2024-05-09T05:04:23.172Z,9.13
2024-05-09T05:07:08.324Z,9.28
2024-05-09T05:09:53.442Z,9.33
2024-05-09T05:12:38.755Z,9.35
2024-05-09T05:15:23.925Z,9.44
2024-05-09T05:18:09.326Z,9.61
2024-05-09T05:20:54.438Z,9.75
2024-05-09T05:23:39.518Z,9.94
2024-05-09T05:26:24.626Z,10.44
2024-05-09T05:29:09.837Z,13.88
2024-05-09T05:31:55.117Z,15.33
2024-05-09T05:34:39.997Z,16.69
2024-05-09T05:37:25.451Z,18.75
2024-05-09T05:40:14.622Z,20.42
2024-05-09T05:43:02.722Z,21.41
2024-05-09T05:45:47.702Z,22.59
2024-05-09T05:48:32.996Z,23.72
2024-05-09T05:51:17.891Z,24.29
2024-05-09T05:54:02.947Z,24.86
2024-05-09T05:56:48.006Z,24.65
2024-05-09T05:59:33.141Z,25.37
2024-05-09T06:02:18.291Z,26.29
2024-05-09T06:05:03.192Z,26.54
2024-05-09T06:07:49.220Z,27.34
2024-05-09T06:10:38.636Z,27.34
2024-05-09T06:13:25.658Z,27.11
2024-05-09T06:16:10.786Z,27.33
2024-05-09T06:18:56.092Z,27.53
2024-05-09T06:21:41.395Z,28.31
2024-05-09T06:24:26.411Z,28.96
2024-05-09T06:27:11.363Z,27.12
2024-05-09T06:29:56.572Z,26.22
2024-05-09T06:32:41.659Z,25.90
2024-05-09T06:35:26.610Z,26.44
2024-05-09T06:38:12.188Z,25.36
2024-05-09T06:40:57.305Z,25.94
2024-05-09T06:43:42.244Z,26.03
2024-05-09T06:46:27.341Z,26.65
2024-05-09T06:49:12.576Z,26.50
2024-05-09T06:51:57.400Z,27.06
2024-05-09T06:54:42.522Z,28.08
2024-05-09T06:57:27.394Z,29.19
2024-05-09T07:00:18.643Z,29.60
2024-05-09T07:03:08.317Z,29.88
2024-05-09T07:05:53.806Z,30.33
2024-05-09T07:08:38.849Z,30.43
2024-05-09T07:11:24.133Z,29.35
2024-05-09T07:14:09.061Z,27.53
2024-05-09T07:16:54.269Z,26.22
2024-05-09T07:19:39.304Z,26.78
2024-05-09T07:22:24.646Z,26.32
2024-05-09T07:25:09.908Z,26.64
2024-05-09T07:27:54.926Z,26.55
2024-05-09T07:30:40.158Z,25.94
2024-05-09T07:33:25.234Z,23.72
2024-05-09T07:36:10.240Z,21.81
2024-05-09T07:38:55.266Z,20.71
2024-05-09T07:41:40.420Z,19.11
2024-05-09T07:44:25.661Z,18.17
2024-05-09T07:48:27.500Z,17.30
2024-05-09T07:53:36.213Z,16.08
2024-05-09T07:56:10.235Z,16.39
2024-05-09T07:58:56.764Z,16.11
2024-05-09T08:01:42.083Z,15.73
2024-05-09T08:04:27.170Z,15.29
2024-05-09T08:07:12.176Z,15.42
2024-05-09T08:09:57.464Z,15.77
2024-05-09T08:12:42.488Z,16.07
2024-05-09T08:15:27.830Z,15.78
2024-05-09T08:18:12.750Z,15.24
2024-05-09T08:20:57.870Z,15.23
2024-05-09T08:23:42.895Z,15.05
2024-05-09T08:26:27.986Z,14.91
2024-05-09T08:29:13.070Z,14.53
2024-05-09T08:31:58.133Z,15.01
2024-05-09T08:34:43.230Z,15.27
2024-05-09T08:37:32.816Z,15.03
2024-05-09T08:40:30.584Z,14.93
2024-05-09T08:43:20.470Z,14.49
2024-05-09T08:46:05.565Z,14.74
2024-05-09T08:48:50.852Z,14.54
2024-05-09T08:51:35.791Z,14.51
2024-05-09T08:54:20.769Z,15.01
2024-05-09T08:57:05.964Z,15.17
2024-05-09T08:59:51.116Z,15.02
2024-05-09T09:02:36.458Z,14.99
2024-05-09T09:05:21.338Z,14.96
2024-05-09T09:08:06.386Z,15.62
2024-05-09T09:10:51.617Z,15.69
2024-05-09T09:13:36.488Z,15.78
2024-05-09T09:16:21.766Z,15.87
2024-05-09T09:19:06.866Z,15.94
2024-05-09T09:21:51.994Z,16.05
2024-05-09T09:24:36.912Z,16.05
2024-05-09T09:27:22.040Z,16.07
2024-05-09T09:30:13.270Z,15.95
2024-05-09T09:33:04.001Z,15.75
2024-05-09T09:35:48.954Z,15.81
2024-05-09T09:38:34.180Z,15.55
2024-05-09T09:41:19.217Z,15.62
2024-05-09T09:44:04.219Z,15.53
2024-05-09T09:46:49.426Z,15.71
2024-05-09T09:49:34.442Z,16.09
2024-05-09T09:52:19.651Z,16.26
2024-05-09T09:55:04.686Z,16.72
2024-05-09T09:57:49.835Z,16.59
2024-05-09T10:00:34.894Z,16.65
2024-05-09T10:03:20.145Z,16.47
2024-05-09T10:06:05.163Z,16.74
2024-05-09T10:08:50.225Z,17.20
2024-05-09T10:11:42.044Z,17.30
2024-05-09T10:14:30.617Z,16.97
2024-05-09T10:17:15.895Z,17.16
2024-05-09T10:20:00.772Z,17.22
2024-05-09T10:22:45.912Z,16.84
2024-05-09T10:25:31.020Z,16.85
2024-05-09T10:28:16.316Z,16.93
2024-05-09T10:31:01.456Z,16.83
2024-05-09T10:33:46.583Z,16.97
2024-05-09T10:36:32.102Z,16.87
2024-05-09T10:39:17.150Z,16.88
2024-05-09T10:42:02.430Z,16.87
2024-05-09T10:44:47.540Z,16.74
2024-05-09T10:47:32.735Z,16.47
2024-05-09T10:50:25.080Z,16.47
2024-05-09T10:53:13.738Z,16.62
2024-05-09T10:55:58.761Z,16.87
2024-05-09T10:58:43.950Z,16.81
2024-05-09T11:01:29.161Z,17.15
2024-05-09T11:04:14.454Z,17.10
2024-05-09T11:07:01.567Z,17.54
2024-05-09T11:09:48.728Z,17.71
2024-05-09T11:12:33.874Z,17.39
2024-05-09T11:15:18.898Z,17.43
2024-05-09T11:18:04.010Z,17.35
2024-05-09T11:20:48.930Z,17.46
2024-05-09T11:23:33.772Z,17.43
2024-05-09T11:26:18.922Z,17.86
2024-05-09T11:29:03.989Z,18.03
2024-05-09T11:31:49.290Z,18.02
2024-05-09T11:34:34.525Z,17.90
2024-05-09T11:37:20.116Z,18.33
2024-05-09T11:40:09.249Z,18.52
2024-05-09T11:42:56.736Z,18.51
2024-05-09T11:45:41.739Z,18.68
2024-05-09T11:48:27.322Z,18.34
2024-05-09T11:51:12.449Z,18.17
2024-05-09T11:53:57.750Z,17.87
2024-05-09T11:56:42.735Z,18.15
2024-05-09T11:59:27.998Z,17.80
2024-05-09T12:02:13.347Z,18.04
2024-05-09T12:04:58.776Z,17.88
2024-05-09T12:07:43.867Z,18.11
2024-05-09T12:10:33.504Z,18.11
2024-05-09T12:13:20.605Z,17.89
2024-05-09T12:16:05.538Z,18.07
2024-05-09T12:18:50.599Z,18.21
2024-05-09T12:21:35.714Z,18.42
2024-05-09T12:24:20.720Z,18.42
2024-05-09T12:27:05.778Z,18.41
2024-05-09T12:29:51.095Z,18.54
2024-05-09T12:32:36.222Z,18.85
2024-05-09T12:35:21.192Z,19.02
2024-05-09T12:38:06.189Z,18.62
2024-05-09T12:40:51.519Z,18.71
2024-05-09T12:43:36.369Z,19.10
2024-05-09T12:46:21.560Z,19.09
2024-05-09T12:49:06.980Z,18.84
2024-05-09T12:51:52.228Z,18.67
2024-05-09T12:54:37.342Z,18.70
2024-05-09T12:57:22.306Z,18.40
2024-05-09T13:00:11.497Z,18.46
2024-05-09T13:02:59.100Z,18.62
2024-05-09T13:05:44.479Z,18.99
2024-05-09T13:08:30.193Z,19.08
2024-05-09T13:11:15.461Z,19.15
2024-05-09T13:14:00.416Z,19.24
2024-05-09T13:16:45.516Z,19.53
2024-05-09T13:19:30.535Z,19.56
2024-05-09T13:22:15.743Z,19.75
2024-05-09T13:25:00.872Z,19.86
2024-05-09T13:27:45.732Z,19.51
2024-05-09T13:30:39.055Z,19.66
2024-05-09T13:33:27.166Z,19.78
2024-05-09T13:36:12.139Z,19.60
2024-05-09T13:38:57.289Z,19.48
2024-05-09T13:41:42.463Z,19.47
2024-05-09T13:44:27.486Z,19.56
2024-05-09T13:47:12.623Z,19.43
2024-05-09T13:49:57.576Z,19.45
2024-05-09T13:52:42.774Z,19.53
2024-05-09T13:55:27.740Z,19.61
2024-05-09T13:58:12.907Z,19.39
2024-05-09T14:00:57.992Z,19.35
2024-05-09T14:03:42.954Z,19.20
2024-05-09T14:06:27.928Z,19.10
2024-05-09T14:09:13.064Z,19.21
2024-05-09T14:11:58.299Z,19.45
2024-05-09T14:14:43.215Z,19.36
2024-05-09T14:17:28.487Z,19.22
2024-05-09T14:20:16.686Z,19.29
2024-05-09T14:23:08.254Z,19.21
2024-05-09T14:25:53.222Z,19.22
2024-05-09T14:28:38.323Z,19.44
2024-05-09T14:31:23.348Z,19.63
2024-05-09T14:34:08.748Z,19.93
2024-05-09T14:36:54.172Z,20.23
2024-05-09T14:39:39.050Z,20.64
2024-05-09T14:42:24.055Z,21.00
2024-05-09T14:45:09.096Z,21.21
2024-05-09T14:47:54.166Z,21.29
2024-05-09T14:50:40.566Z,20.59
2024-05-09T14:53:26.330Z,20.16
2024-05-09T14:56:11.562Z,19.81
2024-05-09T14:58:56.497Z,19.49
2024-05-09T15:01:41.761Z,19.40
2024-05-09T15:04:26.650Z,19.16
2024-05-09T15:07:11.907Z,19.16
2024-05-09T15:09:56.940Z,19.09
2024-05-09T15:12:41.814Z,19.09
2024-05-09T15:15:26.981Z,19.16
2024-05-09T15:18:12.065Z,19.11
2024-05-09T15:20:57.283Z,19.22
2024-05-09T15:23:42.194Z,19.34
2024-05-09T15:26:27.260Z,19.39
2024-05-09T15:29:12.275Z,19.57
2024-05-09T15:31:57.478Z,19.43
2024-05-09T15:34:42.384Z,19.44
2024-05-09T15:37:27.384Z,19.27
2024-05-09T15:40:18.491Z,19.26
2024-05-09T15:43:11.674Z,19.46
2024-05-09T15:45:56.911Z,19.76
2024-05-09T15:48:44.350Z,20.01
2024-05-09T15:51:29.862Z,20.15
2024-05-09T15:54:14.971Z,20.23
2024-05-09T15:56:59.960Z,20.12
2024-05-09T15:59:45.130Z,19.75
2024-05-09T16:02:30.355Z,19.39
2024-05-09T16:05:15.401Z,19.33
2024-05-09T16:08:00.361Z,19.40
2024-05-09T16:10:46.352Z,19.53
2024-05-09T16:13:32.146Z,19.44
2024-05-09T16:16:17.215Z,19.25
2024-05-09T16:19:02.333Z,19.16
2024-05-09T16:21:47.531Z,19.00
2024-05-09T16:24:32.498Z,19.01
2024-05-09T16:27:17.478Z,19.05
2024-05-09T16:30:04.144Z,19.11
2024-05-09T16:32:51.670Z,19.19
2024-05-09T16:35:36.549Z,19.15
2024-05-09T16:38:21.792Z,19.11
2024-05-09T16:41:06.812Z,18.96
2024-05-09T16:43:51.787Z,18.80
2024-05-09T16:46:36.846Z,18.71
2024-05-09T16:49:21.949Z,18.71
2024-05-09T16:52:07.162Z,18.66
2024-05-09T16:54:52.203Z,18.64
2024-05-09T16:57:37.315Z,18.67
2024-05-09T17:00:31.494Z,18.66
2024-05-09T17:03:24.901Z,18.59
2024-05-09T17:06:09.922Z,18.50
2024-05-09T17:08:55.675Z,18.42
2024-05-09T17:11:44.106Z,18.40
2024-05-09T17:14:29.372Z,18.31
2024-05-09T17:17:14.406Z,18.25
2024-05-09T17:19:59.414Z,18.23
2024-05-09T17:22:44.513Z,18.13
2024-05-09T17:25:29.761Z,18.05
2024-05-09T17:28:14.807Z,17.93
2024-05-09T17:30:59.746Z,17.81
2024-05-09T17:33:45.071Z,17.80
2024-05-09T17:36:29.867Z,17.86
2024-05-09T17:39:15.018Z,17.79
2024-05-09T17:42:00.055Z,17.67
2024-05-09T17:44:45.262Z,17.55
2024-05-09T17:47:30.432Z,17.40
2024-05-09T17:50:23.738Z,17.30
2024-05-09T17:53:12.582Z,17.27
2024-05-09T17:55:57.740Z,17.25
2024-05-09T17:58:42.641Z,17.17
2024-05-09T18:01:27.796Z,17.00
2024-05-09T18:04:12.991Z,16.90
2024-05-09T18:06:58.002Z,16.88
2024-05-09T18:09:43.147Z,16.74
2024-05-09T18:12:28.292Z,16.72
2024-05-09T18:15:13.310Z,16.74
2024-05-09T18:17:58.503Z,16.77
2024-05-09T18:20:45.730Z,16.73
2024-05-09T18:23:31.517Z,16.69
2024-05-09T18:26:16.479Z,16.60
2024-05-09T18:29:01.895Z,16.46
2024-05-09T18:31:46.860Z,16.29
2024-05-09T18:34:32.255Z,16.28
2024-05-09T18:37:17.294Z,16.14
2024-05-09T18:40:02.325Z,16.10
2024-05-09T18:42:48.018Z,16.14
2024-05-09T18:45:32.912Z,16.02
2024-05-09T18:48:18.052Z,15.88
2024-05-09T18:51:03.174Z,15.73
2024-05-09T18:53:48.321Z,15.79
2024-05-09T18:56:33.442Z,15.80
2024-05-09T18:59:18.499Z,15.76
2024-05-09T19:02:03.797Z,15.75
2024-05-09T19:04:49.287Z,15.73
2024-05-09T19:07:34.153Z,15.68
2024-05-09T19:10:22.917Z,15.61
2024-05-09T19:13:13.433Z,15.50
2024-05-09T19:15:59.735Z,15.43
2024-05-09T19:21:25.901Z,15.35
2024-05-09T19:24:11.110Z,15.38
2024-05-09T19:26:56.351Z,15.35
2024-05-09T19:29:41.512Z,15.28
2024-05-09T19:32:26.767Z,15.24
2024-05-09T19:35:11.838Z,15.15
2024-05-09T19:37:56.808Z,15.13
2024-05-09T19:40:41.992Z,15.17
2024-05-09T19:43:27.212Z,15.08
2024-05-09T19:46:12.174Z,15.00
2024-05-09T19:48:57.710Z,14.92
2024-05-09T19:51:42.942Z,14.90
2024-05-09T19:54:28.033Z,14.82
2024-05-09T19:57:13.237Z,14.73
2024-05-09T19:59:58.406Z,14.67
2024-05-09T20:02:43.738Z,14.68
2024-05-09T20:08:17.097Z,14.47
2024-05-09T20:11:02.150Z,14.35
2024-05-09T20:13:47.280Z,14.31
2024-05-09T20:16:32.515Z,14.19
2024-05-09T20:19:17.562Z,14.03
2024-05-09T20:22:02.655Z,14.02
2024-05-09T20:24:47.688Z,14.03
2024-05-09T20:27:32.902Z,14.01
2024-05-09T20:30:25.422Z,14.02
2024-05-09T20:33:16.720Z,13.97
2024-05-09T20:36:02.576Z,13.77
2024-05-09T20:38:47.648Z,13.65
2024-05-09T20:41:35.172Z,13.63
2024-05-09T20:44:20.994Z,13.74
2024-05-09T20:47:05.972Z,13.81
2024-05-09T20:49:51.250Z,13.83
2024-05-09T20:52:36.250Z,13.77
2024-05-09T20:55:21.459Z,13.74
2024-05-09T20:58:06.407Z,13.70
2024-05-09T21:00:51.606Z,13.72
2024-05-09T21:03:36.572Z,13.75
2024-05-09T21:06:21.518Z,13.68
2024-05-09T21:09:06.684Z,13.57
2024-05-09T21:11:51.632Z,13.54
2024-05-09T21:14:36.781Z,13.53
2024-05-09T21:17:21.863Z,13.51
2024-05-09T21:20:11.690Z,13.52
2024-05-09T21:23:02.732Z,13.45
2024-05-09T21:25:47.670Z,13.27
2024-05-09T21:28:32.749Z,13.20
2024-05-09T21:31:17.848Z,13.16
2024-05-09T21:34:02.872Z,13.11
2024-05-09T21:36:47.911Z,13.05
2024-05-09T21:39:33.020Z,13.00
2024-05-09T21:42:17.988Z,13.07
2024-05-09T21:45:03.245Z,13.08
2024-05-09T21:47:48.335Z,12.96
2024-05-09T21:50:39.713Z,12.95
2024-05-09T21:53:26.896Z,12.96
2024-05-09T21:56:11.975Z,12.91
2024-05-09T21:58:57.092Z,12.83
2024-05-09T22:01:42.374Z,12.77
2024-05-09T22:04:27.448Z,12.73
2024-05-09T22:07:12.665Z,12.81
2024-05-09T22:09:57.688Z,12.79
2024-05-09T22:12:42.863Z,12.71
2024-05-09T22:15:27.908Z,12.69
2024-05-09T22:18:12.996Z,12.69
2024-05-09T22:20:57.906Z,12.59
2024-05-09T22:23:43.076Z,12.55
2024-05-09T22:26:28.231Z,12.56
2024-05-09T22:29:13.290Z,12.58
2024-05-09T22:31:58.433Z,12.58
2024-05-09T22:34:43.487Z,12.58
2024-05-09T22:37:28.533Z,12.55
2024-05-09T22:40:20.706Z,12.53
2024-05-09T22:43:13.331Z,12.48
2024-05-09T22:45:58.484Z,12.42
2024-05-09T22:51:24.920Z,12.39
2024-05-09T22:54:10.102Z,12.35
2024-05-09T22:56:55.278Z,12.26
2024-05-09T22:59:40.297Z,12.32
2024-05-09T23:02:25.544Z,12.34
2024-05-09T23:08:08.263Z,12.38
2024-05-09T23:13:35.109Z,12.31
2024-05-09T23:16:20.103Z,12.24
2024-05-09T23:19:05.304Z,12.16
2024-05-09T23:21:50.853Z,12.22
2024-05-09T23:24:35.919Z,12.24
2024-05-09T23:27:20.982Z,12.22
2024-05-09T23:30:09.571Z,12.22
2024-05-09T23:32:57.487Z,12.24
2024-05-09T23:35:42.473Z,12.28
2024-05-09T23:38:27.475Z,12.21
2024-05-09T23:41:12.713Z,12.13
2024-05-09T23:46:42.200Z,11.92
2024-05-09T23:49:27.493Z,11.95
2024-05-09T23:52:12.776Z,11.95
2024-05-09T23:54:57.660Z,11.97
2024-05-09T23:57:42.833Z,12.02
